Time;durP1;ratioP1;P1;durP2;ratioP2;P2;SDS_P1;SDS_P2;PMS_P1;PMS_P2;Temp;Humidity;BMP_temperature;BMP_pressure;BME280_temperature;BME280_humidity;BME280_pressure;Samples;Min_cycle;Max_cycle;Signal;HPM_P1;HPM_P2
2022/09/27 00:00:31;;;;;;;;;;;10.20;99.90;;;;;;6155342;23;19912;-85
2022/09/27 00:02:59;;;;;;;33.47;17.95;;;10.10;99.90;;;;;;6153746;23;20433;-84
2022/09/27 00:05:27;;;;;;;;;;;10.10;99.90;;;;;;6155422;23;20150;-85
2022/09/27 00:07:53;;;;;;;;;;;10.10;99.90;;;;;;6154977;23;20312;-86
2022/09/27 00:10:20;;;;;;;26.23;16.35;;;10.00;99.90;;;;;;6154649;23;20434;-84
2022/09/27 00:12:48;;;;;;;;;;;10.00;99.90;;;;;;6155412;23;20162;-84
2022/09/27 00:15:16;;;;;;;20.92;14.25;;;10.00;99.90;;;;;;6154229;23;20379;-86
2022/09/27 00:17:43;;;;;;;;;;;9.90;99.90;;;;;;6156175;23;20168;-86
2022/09/27 00:20:10;;;;;;;;;;;9.90;99.90;;;;;;6156961;23;19912;-84
2022/09/27 00:22:37;;;;;;;;;;;9.90;99.90;;;;;;6157280;23;19920;-85
2022/09/27 00:25:06;;;;;;;;;;;9.90;99.90;;;;;;6157301;23;19912;-85
2022/09/27 00:27:33;;;;;;;;;;;9.90;99.90;;;;;;6156913;23;19919;-84
2022/09/27 00:30:00;;;;;;;19.25;14.18;;;9.90;99.90;;;;;;6156476;23;20374;-84
2022/09/27 00:32:28;;;;;;;;;;;9.80;99.90;;;;;;6156977;23;20213;-83
2022/09/27 00:34:55;;;;;;;;;;;9.80;99.90;;;;;;6157264;23;20011;-84
2022/09/27 00:37:22;;;;;;;;;;;9.80;99.90;;;;;;6157204;23;19912;-85
2022/09/27 00:39:49;;;;;;;;;;;9.80;99.90;;;;;;6157060;23;20374;-84
2022/09/27 00:42:16;;;;;;;24.20;15.30;;;9.80;99.90;;;;;;6156228;23;20391;-83
2022/09/27 00:45:00;;;;;;;;;;;9.80;99.90;;;;;;6156799;23;20478;-84
2022/09/27 00:47:30;;;;;;;;;;;9.80;99.90;;;;;;6157137;23;19912;-86
2022/09/27 00:50:00;;;;;;;22.47;14.73;;;9.80;99.90;;;;;;6154880;23;20856;-84
2022/09/27 00:52:29;;;;;;;;;;;9.70;99.90;;;;;;6157044;23;20383;-85
2022/09/27 00:54:58;;;;;;;;;;;9.70;99.90;;;;;;6157003;23;19947;-84
2022/09/27 00:57:25;;;;;;;;;;;9.70;99.90;;;;;;6156627;23;20332;-84
2022/09/27 00:59:55;;;;;;;;;;;9.70;99.90;;;;;;6157095;23;19913;-84
2022/09/27 01:02:22;;;;;;;17.27;13.60;;;9.70;99.90;;;;;;6156478;23;20401;-84
2022/09/27 01:04:51;;;;;;;;;;;9.70;1.00;;;;;;6156692;23;20194;-85
2022/09/27 01:07:18;;;;;;;25.53;15.97;;;9.70;1.00;;;;;;6155113;23;20370;-84
2022/09/27 01:09:45;;;;;;;;;;;9.70;1.00;;;;;;6156865;23;20447;-85
2022/09/27 01:12:20;;;;;;;;;;;9.70;1.00;;;;;;6156854;23;19959;-84
2022/09/27 01:15:05;;;;;;;35.13;18.48;;;9.70;1.00;;;;;;6155785;23;20390;-84
2022/09/27 01:17:37;;;;;;;;;;;9.70;1.00;;;;;;6156917;23;20150;-84
2022/09/27 01:20:15;;;;;;;;;;;9.70;1.00;;;;;;6156415;23;19995;-84
2022/09/27 01:22:53;;;;;;;24.60;15.77;;;9.70;1.00;;;;;;6155318;23;20454;-84
2022/09/27 01:25:33;;;;;;;;;;;9.70;99.90;;;;;;6156652;23;20154;-84
2022/09/27 01:28:09;;;;;;;;;;;9.70;99.90;;;;;;6156068;23;19913;-84
2022/09/27 01:30:41;;;;;;;;;;;9.70;1.00;;;;;;6156358;23;20346;-84
2022/09/27 01:33:23;;;;;;;18.67;13.95;;;9.70;1.00;;;;;;6154500;23;20694;-84
2022/09/27 01:35:57;;;;;;;;;;;9.70;1.00;;;;;;6156799;23;20157;-85
2022/09/27 01:38:26;;;;;;;;;;;9.70;1.00;;;;;;6156608;23;20312;-85
2022/09/27 01:40:59;;;;;;;21.10;14.85;;;9.60;1.00;;;;;;6155370;23;20393;-84
2022/09/27 01:43:29;;;;;;;;;;;9.70;1.00;;;;;;6156814;23;20150;-84
2022/09/27 01:45:59;;;;;;;;;;;9.60;1.00;;;;;;6156656;23;19917;-85
2022/09/27 01:48:31;;;;;;;;;;;9.60;1.00;;;;;;6156446;23;19935;-85
2022/09/27 01:50:59;;;;;;;;;;;9.60;1.00;;;;;;6156509;23;19913;-84
2022/09/27 01:53:29;;;;;;;;;;;9.60;1.00;;;;;;6156421;23;19935;-84
2022/09/27 01:55:56;;;;;;;;;;;9.60;1.00;;;;;;6156121;23;19913;-84
2022/09/27 01:58:26;;;;;;;;;;;9.50;1.00;;;;;;6156367;23;20312;-84
2022/09/27 02:00:54;;;;;;;;;;;9.50;1.00;;;;;;6156639;23;19913;-84
2022/09/27 02:03:23;;;;;;;;;;;9.50;1.00;;;;;;6156117;23;19912;-85
2022/09/27 02:05:51;;;;;;;;;;;9.50;1.00;;;;;;6156479;23;19912;-84
2022/09/27 02:08:20;;;;;;;;;;;9.50;1.00;;;;;;6155928;23;19920;-85
2022/09/27 02:10:49;;;;;;;;;;;9.50;1.00;;;;;;6155942;23;20379;-84
2022/09/27 02:13:17;;;;;;;;;;;9.40;1.00;;;;;;6155795;23;19912;-84
2022/09/27 02:15:53;;;;;;;;;;;9.50;95.40;;;;;;6156239;23;19912;-85
2022/09/27 02:18:27;;;;;;;;;;;9.50;99.90;;;;;;6155987;23;20331;-84
2022/09/27 02:20:56;;;;;;;;;;;9.50;43.70;;;;;;6156448;23;19968;-84
2022/09/27 02:23:26;;;;;;;;;;;9.50;99.90;;;;;;6156608;23;19919;-85
2022/09/27 02:25:56;;;;;;;;;;;9.50;1.00;;;;;;6156519;23;19984;-84
2022/09/27 02:28:25;;;;;;;;;;;9.50;1.00;;;;;;6155804;23;20312;-85
2022/09/27 02:30:52;;;;;;;;;;;9.50;1.00;;;;;;6156099;23;19919;-85
2022/09/27 02:33:20;;;;;;;;;;;9.50;7.90;;;;;;6155531;23;19916;-84
2022/09/27 02:35:49;;;;;;;;;;;9.40;1.00;;;;;;6156027;23;19916;-83
2022/09/27 02:38:16;;;;;;;;;;;9.40;1.00;;;;;;6155755;23;20296;-84
2022/09/27 02:40:44;;;;;;;;;;;9.40;1.00;;;;;;6155843;23;19912;-85
2022/09/27 02:43:12;;;;;;;;;;;9.40;1.00;;;;;;6155932;23;19919;-85
2022/09/27 02:45:44;;;;;;;;;;;9.40;99.90;;;;;;6156048;23;19928;-84
2022/09/27 02:48:15;;;;;;;;;;;9.40;99.90;;;;;;6156030;23;19913;-85
2022/09/27 02:50:49;;;;;;;;;;;9.40;1.00;;;;;;6155573;23;19928;-83
2022/09/27 02:53:22;;;;;;;;;;;9.40;99.90;;;;;;6155827;23;19935;-85
2022/09/27 02:55:51;;;;;;;;;;;9.50;99.90;;;;;;6155969;23;19912;-84
2022/09/27 02:58:24;;;;;;;;;;;9.50;99.90;;;;;;6155786;23;19917;-85
2022/09/27 03:00:54;;;;;;;;;;;9.60;1.00;;;;;;6155462;23;19919;-84
2022/09/27 03:03:23;;;;;;;;;;;9.60;99.90;;;;;;6155213;23;19917;-83
2022/09/27 03:05:52;;;;;;;;;;;9.70;99.90;;;;;;6155317;23;19928;-83
2022/09/27 03:08:21;;;;;;;;;;;9.70;99.90;;;;;;6155592;23;19912;-84
2022/09/27 03:10:48;;;;;;;;;;;9.80;99.90;;;;;;6155724;23;19916;-85
2022/09/27 03:13:15;;;;;;;;;;;9.80;1.00;;;;;;6155315;23;19927;-85
2022/09/27 03:15:42;;;;;;;;;;;9.90;99.90;;;;;;6154941;23;19920;-83
2022/09/27 03:18:08;;;;;;;;;;;10.00;99.90;;;;;;6154845;23;20346;-85
2022/09/27 03:20:35;;;;;;;;;;;10.00;99.90;;;;;;6154672;23;19923;-85
2022/09/27 03:23:02;;;;;;;;;;;10.00;99.90;;;;;;6155496;23;19912;-84
2022/09/27 03:25:30;;;;;;;;;;;10.10;99.90;;;;;;6155507;23;19919;-84
2022/09/27 03:27:57;;;;;;;;;;;10.10;99.90;;;;;;6155043;23;19919;-84
2022/09/27 03:30:24;;;;;;;;;;;10.20;1.00;;;;;;6154041;23;19928;-84
2022/09/27 03:32:51;;;;;;;;;;;10.10;1.00;;;;;;6154781;23;19913;-84
2022/09/27 03:35:18;;;;;;;;;;;10.20;99.90;;;;;;6154697;23;20263;-84
2022/09/27 03:37:46;;;;;;;;;;;10.20;1.00;;;;;;6154944;23;19913;-84
2022/09/27 03:40:13;;;;;;;;;;;10.20;1.00;;;;;;6155466;23;20012;-84
2022/09/27 03:42:41;;;;;;;;;;;10.20;1.00;;;;;;6154926;23;19914;-84
2022/09/27 03:45:09;;;;;;;62.33;24.67;;;10.30;1.00;;;;;;6153868;23;20706;-84
2022/09/27 03:47:41;;;;;;;28.17;17.55;;;10.30;1.00;;;;;;6155098;23;20449;-83
2022/09/27 03:50:09;;;;;;;31.45;18.13;;;10.20;1.00;;;;;;6155108;23;20225;-84
2022/09/27 03:52:36;;;;;;;31.42;18.23;;;10.20;1.00;;;;;;6154393;23;20173;-83
2022/09/27 03:55:04;;;;;;;30.60;17.75;;;10.20;1.00;;;;;;6154485;23;20170;-84
2022/09/27 03:57:31;;;;;;;29.65;17.42;;;10.20;1.00;;;;;;6155249;23;20166;-84
2022/09/27 03:59:59;;;;;;;29.27;17.52;;;10.20;1.00;;;;;;6154740;23;20166;-85
2022/09/27 04:02:27;;;;;;;30.70;17.92;;;10.30;1.00;;;;;;6154835;23;20193;-84
2022/09/27 04:04:54;;;;;;;28.67;17.08;;;10.20;1.00;;;;;;6155020;23;20556;-84
2022/09/27 04:07:22;;;;;;;31.00;17.95;;;10.20;1.00;;;;;;6154854;23;20161;-85
2022/09/27 04:09:49;;;;;;;29.33;17.30;;;10.20;1.00;;;;;;6154566;23;20162;-84
2022/09/27 04:12:17;;;;;;;28.40;16.95;;;10.20;1.00;;;;;;6154376;23;20169;-84
2022/09/27 04:14:44;;;;;;;31.17;17.80;;;10.20;1.00;;;;;;6154182;23;20482;-84
2022/09/27 04:17:12;;;;;;;27.95;16.92;;;10.20;1.00;;;;;;6154822;23;20165;-86
2022/09/27 04:19:39;;;;;;;27.50;16.55;;;10.20;1.00;;;;;;6154356;23;20612;-85
2022/09/27 04:22:06;;;;;;;29.40;17.60;;;10.20;1.00;;;;;;6154199;23;20182;-85
2022/09/27 04:24:34;;;;;;;24.63;15.68;;;10.20;1.00;;;;;;6154393;23;20166;-84
2022/09/27 04:27:01;;;;;;;23.15;15.45;;;10.20;1.00;;;;;;6154656;23;20643;-85
2022/09/27 04:29:28;;;;;;;23.98;15.73;;;10.20;99.90;;;;;;6155166;23;20166;-84
2022/09/27 04:31:55;;;;;;;22.00;15.50;;;10.20;1.00;;;;;;6154400;23;20227;-85
2022/09/27 04:36:25;;;;;;;21.95;15.02;;;10.20;1.00;;;;;;6153635;23;20606;-84
2022/09/27 04:37:10;;;;;;;21.23;15.10;;;10.20;1.00;;;;;;6154358;23;20456;-85
2022/09/27 04:39:38;;;;;;;22.48;15.27;;;10.20;1.00;;;;;;6154258;23;20537;-84
2022/09/27 04:42:06;;;;;;;15.68;13.57;;;10.20;1.00;;;;;;6154456;23;20189;-85
2022/09/27 04:44:33;;;;;;;20.58;14.90;;;10.20;1.00;;;;;;6155013;23;20166;-85
2022/09/27 04:47:00;;;;;;;20.10;14.60;;;10.20;1.00;;;;;;6151641;23;20166;-84
2022/09/27 04:49:28;;;;;;;20.92;14.98;;;10.20;1.00;;;;;;6153519;23;20169;-85
2022/09/27 04:51:55;;;;;;;18.23;14.65;;;10.20;1.00;;;;;;6153924;23;20601;-85
2022/09/27 04:54:23;;;;;;;14.48;13.00;;;10.20;1.00;;;;;;6154138;23;20162;-84
2022/09/27 04:56:50;;;;;;;22.55;17.65;;;10.20;1.00;;;;;;6153454;23;20172;-86
2022/09/27 04:59:17;;;;;;;23.50;15.75;;;10.20;1.00;;;;;;6151912;23;20170;-84
2022/09/27 05:01:45;;;;;;;17.80;13.95;;;10.20;1.00;;;;;;6153313;23;20169;-84
2022/09/27 05:04:12;;;;;;;17.08;13.85;;;10.20;1.00;;;;;;6155011;23;20260;-85
2022/09/27 05:06:41;;;;;;;17.42;13.88;;;10.20;1.00;;;;;;6155430;23;20174;-85
2022/09/27 05:09:08;;;;;;;18.60;14.60;;;10.20;1.00;;;;;;6154969;23;20162;-84
2022/09/27 05:11:36;;;;;;;18.65;14.48;;;10.20;1.00;;;;;;6156356;23;20486;-86
2022/09/27 05:14:04;;;;;;;18.75;14.70;;;10.20;1.00;;;;;;6156399;23;20174;-86
2022/09/27 05:16:32;;;;;;;17.08;13.88;;;10.30;1.00;;;;;;6154397;23;20469;-86
2022/09/27 05:19:00;;;;;;;17.25;14.00;;;10.30;54.20;;;;;;6155928;23;20604;-86
2022/09/27 05:21:27;;;;;;;15.57;13.38;;;10.30;1.00;;;;;;6156532;23;20162;-85
2022/09/27 05:23:55;;;;;;;17.35;14.18;;;10.30;1.00;;;;;;6156216;23;20194;-86
2022/09/27 05:26:22;;;;;;;15.95;13.85;;;10.30;99.90;;;;;;6155893;23;20221;-86
2022/09/27 05:28:49;;;;;;;15.13;13.15;;;10.30;1.00;;;;;;6155836;23;20162;-84
2022/09/27 05:31:16;;;;;;;15.07;13.45;;;10.40;1.00;;;;;;6154207;23;20169;-86
2022/09/27 05:33:43;;;;;;;15.77;13.65;;;10.40;1.00;;;;;;6154039;23;20237;-87
2022/09/27 05:36:10;;;;;;;18.20;14.23;;;10.40;1.00;;;;;;6154324;23;20162;-86
2022/09/27 05:38:38;;;;;;;20.17;14.65;;;10.40;1.00;;;;;;6153987;23;20527;-87
2022/09/27 05:41:07;;;;;;;82.15;27.58;;;10.50;1.00;;;;;;6154867;23;20184;-86
2022/09/27 05:43:35;;;;;;;52.85;22.65;;;10.50;1.00;;;;;;6155237;23;20559;-87
2022/09/27 05:46:04;;;;;;;44.35;20.83;;;10.60;1.00;;;;;;6156243;23;20162;-87
2022/09/27 05:48:31;;;;;;;47.75;21.77;;;10.60;1.00;;;;;;6156215;23;20194;-86
2022/09/27 05:50:58;;;;;;;47.90;21.65;;;10.60;1.00;;;;;;6155916;23;20173;-87
2022/09/27 05:53:26;;;;;;;48.70;21.60;;;10.70;1.00;;;;;;6155568;23;20548;-86
2022/09/27 05:55:53;;;;;;;48.05;21.75;;;10.70;1.00;;;;;;6155933;23;20162;-88
2022/09/27 05:58:21;;;;;;;46.17;21.27;;;10.80;1.00;;;;;;6154587;23;20170;-86
2022/09/27 06:00:48;;;;;;;48.33;21.73;;;10.90;1.00;;;;;;6155593;23;20166;-88
2022/09/27 06:03:15;;;;;;;46.88;21.45;;;10.90;1.00;;;;;;6155147;23;20206;-87
2022/09/27 06:05:42;;;;;;;45.95;20.98;;;11.00;1.00;;;;;;6156002;23;20150;-89
2022/09/27 06:08:11;;;;;;;47.08;21.35;;;11.00;1.00;;;;;;6155419;23;20166;-86
2022/09/27 06:10:40;;;;;;;47.10;21.48;;;11.10;1.00;;;;;;6155384;23;20162;-85
2022/09/27 06:13:11;;;;;;;47.85;21.63;;;11.10;1.00;;;;;;6155380;23;20170;-85
2022/09/27 06:15:41;;;;;;;47.20;21.38;;;11.20;1.00;;;;;;6155540;23;20156;-86
2022/09/27 06:18:11;;;;;;;45.70;21.20;;;11.20;1.00;;;;;;6154998;23;20150;-85
2022/09/27 06:20:39;;;;;;;45.33;20.98;;;11.20;1.00;;;;;;6155658;23;20173;-85
2022/09/27 06:23:08;;;;;;;45.90;21.10;;;11.20;1.00;;;;;;6155434;23;20178;-86
2022/09/27 06:25:35;;;;;;;45.63;21.15;;;11.30;1.00;;;;;;6155300;23;20171;-85
2022/09/27 06:28:02;;;;;;;46.17;21.17;;;11.30;1.00;;;;;;6155406;23;20166;-86
2022/09/27 06:30:30;;;;;;;45.53;21.15;;;11.30;1.00;;;;;;6155749;23;20197;-86
2022/09/27 06:32:59;;;;;;;41.67;20.10;;;11.30;1.00;;;;;;6155291;23;20173;-85
2022/09/27 06:35:27;;;;;;;42.67;20.63;;;11.20;1.00;;;;;;6155356;23;20162;-86
2022/09/27 06:37:54;;;;;;;42.13;20.27;;;11.20;1.00;;;;;;6155423;23;20161;-86
2022/09/27 06:40:23;;;;;;;38.28;20.08;;;11.30;1.00;;;;;;6155155;23;20194;-86
2022/09/27 06:42:50;;;;;;;36.55;19.55;;;11.30;1.00;;;;;;6154996;23;20189;-84
2022/09/27 06:45:17;;;;;;;38.90;20.35;;;11.40;1.00;;;;;;6155490;23;20162;-86
2022/09/27 06:47:45;;;;;;;38.15;20.23;;;11.40;1.00;;;;;;6155288;23;20236;-86
2022/09/27 06:50:14;;;;;;;37.38;20.05;;;11.50;1.00;;;;;;6154967;23;20520;-85
2022/09/27 06:52:48;;;;;;;38.67;20.35;;;11.50;1.00;;;;;;6155338;23;20162;-86
2022/09/27 06:55:16;;;;;;;37.83;20.00;;;11.50;1.00;;;;;;6155067;23;20153;-86
2022/09/27 07:00:28;;;;;;;57.90;23.07;;;11.60;1.00;;;;;;6155179;23;20625;-86
2022/09/27 07:02:59;;;;;;;53.58;22.42;;;11.60;1.00;;;;;;6154610;23;20264;-86
2022/09/27 07:05:29;;;;;;;47.65;21.25;;;11.60;1.00;;;;;;6155040;23;20604;-86
2022/09/27 07:07:56;;;;;;;45.85;20.98;;;11.70;1.00;;;;;;6155335;23;20158;-87
2022/09/27 07:10:25;;;;;;;45.15;21.17;;;11.70;1.00;;;;;;6155011;23;20162;-86
2022/09/27 07:12:52;;;;;;;45.83;21.75;;;11.70;1.00;;;;;;6154763;23;20170;-86
2022/09/27 07:15:21;;;;;;;46.58;21.95;;;11.70;99.90;;;;;;6154856;23;20173;-86
2022/09/27 07:17:48;;;;;;;45.97;21.80;;;11.70;99.90;;;;;;6154752;23;20534;-86
2022/09/27 07:20:15;;;;;;;44.75;21.63;;;11.70;99.90;;;;;;6155171;23;20173;-86
2022/09/27 07:22:44;;;;;;;41.40;20.90;;;11.80;99.90;;;;;;6154679;23;20488;-86
2022/09/27 07:25:11;;;;;;;35.65;18.83;;;11.70;99.90;;;;;;6155026;23;20169;-86
2022/09/27 07:27:40;;;;;;;37.35;19.83;;;11.80;99.90;;;;;;6154678;23;20162;-87
2022/09/27 07:30:10;;;;;;;30.90;17.83;;;11.80;99.90;;;;;;6155324;23;20278;-86
2022/09/27 07:32:37;;;;;;;33.55;18.30;;;11.80;99.90;;;;;;6155584;23;20162;-86
2022/09/27 07:35:07;;;;;;;33.03;18.55;;;11.90;99.90;;;;;;6155405;23;20172;-86
2022/09/27 07:37:35;;;;;;;33.33;18.42;;;11.90;99.90;;;;;;6155431;23;20161;-87
2022/09/27 07:40:08;;;;;;;31.63;18.02;;;12.00;99.90;;;;;;6154635;23;20166;-87
2022/09/27 07:42:37;;;;;;;31.70;17.98;;;12.10;99.90;;;;;;6155053;23;20462;-85
2022/09/27 07:45:06;;;;;;;27.48;16.83;;;12.20;99.90;;;;;;6155227;23;20166;-86
2022/09/27 07:47:33;;;;;;;28.95;17.23;;;12.20;99.90;;;;;;6154674;23;20168;-85
2022/09/27 07:50:01;;;;;;;29.90;17.60;;;12.30;99.90;;;;;;6154557;23;20169;-88
2022/09/27 07:52:28;;;;;;;26.70;16.88;;;12.40;99.90;;;;;;6154713;23;20544;-88
2022/09/27 07:54:55;;;;;;;28.23;17.05;;;12.50;99.90;;;;;;6155002;23;20165;-86
2022/09/27 07:57:23;;;;;;;32.67;18.17;;;12.60;99.90;;;;;;6154449;23;20623;-87
2022/09/27 07:59:50;;;;;;;35.53;19.17;;;12.60;99.90;;;;;;6154837;23;20166;-88
2022/09/27 08:02:18;;;;;;;34.70;18.88;;;12.70;99.90;;;;;;6154723;23;20161;-88
2022/09/27 08:04:46;;;;;;;32.92;18.52;;;12.90;99.90;;;;;;6155040;23;20197;-88
2022/09/27 08:07:14;;;;;;;39.10;19.98;;;13.00;99.90;;;;;;6154968;23;20261;-86
2022/09/27 08:09:41;;;;;;;35.40;18.98;;;13.10;99.90;;;;;;6142321;23;20170;-86
2022/09/27 08:12:09;;;;;;;37.85;19.77;;;13.20;99.90;;;;;;6155096;23;20173;-86
2022/09/27 08:14:37;;;;;;;37.72;19.73;;;13.30;99.90;;;;;;6154801;23;20240;-86
2022/09/27 08:17:04;;;;;;;36.42;19.40;;;13.30;99.90;;;;;;6154509;23;20162;-86
2022/09/27 08:19:31;;;;;;;36.78;19.60;;;13.30;99.90;;;;;;6154899;23;20185;-87
2022/09/27 08:21:58;;;;;;;36.95;19.65;;;13.30;99.90;;;;;;6154839;23;20169;-88
2022/09/27 08:24:26;;;;;;;36.67;19.45;;;13.40;99.90;;;;;;6154333;23;20185;-89
2022/09/27 08:26:53;;;;;;;36.72;19.48;;;13.50;99.90;;;;;;6154838;23;20166;-87
2022/09/27 08:29:20;;;;;;;31.95;18.45;;;13.60;99.90;;;;;;6154721;23;20162;-88
2022/09/27 08:31:50;;;;;;;31.65;18.45;;;13.70;99.90;;;;;;6154394;23;20169;-87
2022/09/27 08:34:17;;;;;;;26.33;16.75;;;13.80;99.90;;;;;;6154590;23;20154;-88
2022/09/27 08:36:45;;;;;;;29.70;18.00;;;13.90;99.90;;;;;;6154772;23;20166;-87
2022/09/27 08:39:12;;;;;;;31.50;18.38;;;13.90;99.90;;;;;;6156048;23;20173;-86
2022/09/27 08:41:44;;;;;;;28.58;17.45;;;13.90;99.90;;;;;;6156737;23;20487;-86
2022/09/27 08:44:19;;;;;;;35.85;19.15;;;13.80;90.00;;;;;;6156311;23;20181;-85
2022/09/27 08:46:57;;;;;;;28.52;17.42;;;13.80;97.70;;;;;;6156058;23;20581;-86
2022/09/27 08:49:32;;;;;;;27.70;17.25;;;13.70;64.90;;;;;;6156333;23;20150;-85
2022/09/27 08:52:01;;;;;;;26.17;16.70;;;13.60;74.60;;;;;;6156227;23;20169;-86
2022/09/27 08:54:31;;;;;;;25.88;16.67;;;13.50;67.00;;;;;;6156505;23;20184;-86
2022/09/27 08:57:03;;;;;;;25.70;16.55;;;13.50;80.50;;;;;;6156320;23;20144;-86
2022/09/27 08:59:35;;;;;;;25.35;16.35;;;13.40;95.30;;;;;;6156078;23;20217;-86
2022/09/27 09:02:11;;;;;;;25.05;16.15;;;13.30;99.90;;;;;;6156288;23;20154;-86
2022/09/27 09:04:41;;;;;;;26.95;16.88;;;13.40;99.90;;;;;;6156258;23;20193;-84
2022/09/27 09:07:16;;;;;;;28.25;17.35;;;13.40;99.90;;;;;;6156521;23;20639;-85
2022/09/27 09:09:52;;;;;;;30.25;18.10;;;13.60;99.90;;;;;;6156087;23;20154;-85
2022/09/27 09:12:49;;;;;;;32.65;18.42;;;13.80;99.90;;;;;;6156373;23;20149;-85
2022/09/27 09:15:27;;;;;;;32.03;18.52;;;14.00;99.90;;;;;;6156441;23;20472;-86
2022/09/27 09:18:21;;;;;;;35.58;19.23;;;14.10;99.90;;;;;;6156459;23;20146;-86
2022/09/27 09:21:05;;;;;;;37.05;19.58;;;14.20;99.90;;;;;;6155977;23;20161;-85
2022/09/27 09:23:54;;;;;;;30.85;18.02;;;14.20;67.90;;;;;;6155928;23;20178;-85
2022/09/27 09:26:29;;;;;;;30.77;18.13;;;14.10;57.80;;;;;;6156042;23;20573;-85
2022/09/27 09:29:11;;;;;;;36.58;19.55;;;14.00;60.50;;;;;;6155887;23;20607;-86
2022/09/27 09:31:43;;;;;;;34.75;19.30;;;14.10;90.00;;;;;;6155834;23;20184;-86
2022/09/27 09:34:19;;;;;;;30.95;18.25;;;14.10;67.50;;;;;;6156594;23;20146;-87
2022/09/27 09:36:51;;;;;;;30.10;17.98;;;14.20;57.70;;;;;;6155905;23;20146;-86
2022/09/27 09:39:22;;;;;;;35.08;19.15;;;14.30;18.90;;;;;;6155696;23;20150;-86
2022/09/27 09:42:03;;;;;;;38.97;20.17;;;14.30;45.90;;;;;;6155687;23;20150;-86
2022/09/27 09:44:33;;;;;;;40.22;20.70;;;14.50;27.30;;;;;;6156071;23;20620;-85
2022/09/27 09:47:03;;;;;;;30.20;18.08;;;14.70;26.50;;;;;;6156011;23;20162;-86
2022/09/27 09:49:38;;;;;;;33.80;19.02;;;14.90;5.80;;;;;;6155097;23;20163;-86
2022/09/27 09:52:18;;;;;;;56.05;24.00;;;15.20;8.70;;;;;;6155967;23;20154;-86
2022/09/27 09:54:49;;;;;;;44.45;21.70;;;15.30;1.00;;;;;;6155593;23;20185;-86
2022/09/27 09:57:22;;;;;;;44.83;21.60;;;15.50;1.00;;;;;;6156082;23;20150;-86
2022/09/27 09:59:55;;;;;;;45.20;21.88;;;15.60;1.00;;;;;;6155376;23;20154;-86
2022/09/27 10:02:27;;;;;;;;;;;15.70;1.00;;;;;;6155900;23;20624;-86
2022/09/27 10:04:55;;;;;;;51.17;23.10;;;16.00;1.00;;;;;;6155716;23;20452;-86
2022/09/27 10:07:26;;;;;;;51.40;23.23;;;16.20;1.00;;;;;;6155388;23;20194;-86
2022/09/27 10:09:55;;;;;;;48.83;22.65;;;16.30;1.00;;;;;;6155402;23;20577;-86
2022/09/27 10:12:23;;;;;;;44.65;21.75;;;16.40;1.00;;;;;;6155782;23;20185;-86
2022/09/27 10:14:52;;;;;;;43.63;21.55;;;16.30;1.00;;;;;;6155741;23;20166;-86
2022/09/27 10:17:22;;;;;;;40.38;20.75;;;16.10;1.00;;;;;;6155908;23;20169;-86
2022/09/27 10:19:53;;;;;;;43.13;21.20;;;16.00;1.00;;;;;;6155360;23;20458;-86
2022/09/27 10:22:26;;;;;;;39.38;20.40;;;15.90;1.00;;;;;;6155864;23;20155;-87
2022/09/27 10:24:58;;;;;;;39.70;20.67;;;15.80;1.00;;;;;;6155598;23;20185;-86
2022/09/27 10:27:26;;;;;;;43.17;21.38;;;15.70;1.00;;;;;;6155634;23;20154;-86
2022/09/27 10:29:57;;;;;;;41.67;20.95;;;15.60;1.00;;;;;;6155474;23;20173;-85
2022/09/27 10:32:30;;;;;;;39.58;20.50;;;15.50;1.00;;;;;;6155778;23;20158;-86
2022/09/27 10:35:17;;;;;;;39.55;20.48;;;15.50;1.00;;;;;;6155724;23;20258;-85
2022/09/27 10:37:46;;;;;;;39.70;20.35;;;15.50;1.00;;;;;;6155719;23;20173;-86
2022/09/27 10:40:27;;;;;;;40.60;20.45;;;15.50;1.00;;;;;;6155886;23;20164;-85
2022/09/27 10:42:54;;;;;;;36.70;19.50;;;15.40;1.00;;;;;;6155254;23;20161;-86
2022/09/27 10:45:27;;;;;;;37.55;19.95;;;15.40;1.00;;;;;;6155303;23;20194;-85
2022/09/27 10:47:55;;;;;;;38.88;20.33;;;15.30;1.00;;;;;;6155668;23;20162;-86
2022/09/27 10:50:25;;;;;;;37.75;19.90;;;15.30;1.00;;;;;;6154996;23;20166;-86
2022/09/27 10:53:04;;;;;;;40.33;20.52;;;15.20;1.00;;;;;;6155509;23;20217;-86
2022/09/27 10:55:35;;;;;;;46.10;21.45;;;15.20;1.00;;;;;;6155424;23;20229;-86
2022/09/27 10:58:03;;;;;;;58.85;24.15;;;15.10;1.00;;;;;;6154812;23;20165;-86
2022/09/27 11:00:32;;;;;;;54.10;23.45;;;15.10;1.00;;;;;;6154789;23;20166;-86
2022/09/27 11:03:03;;;;;;;54.28;23.60;;;15.00;1.00;;;;;;6154625;23;20168;-85
2022/09/27 11:05:34;;;;;;;54.72;23.65;;;15.00;1.00;;;;;;6155502;23;20245;-90
2022/09/27 11:08:19;;;;;;;51.47;22.98;;;15.10;1.00;;;;;;6155312;23;20150;-87
2022/09/27 11:11:01;;;;;;;50.90;22.98;;;15.00;1.00;;;;;;6155668;23;20151;-87
2022/09/27 11:13:31;;;;;;;47.97;22.17;;;14.90;1.00;;;;;;6155471;23;20142;-87
2022/09/27 11:16:10;;;;;;;57.80;23.83;;;14.80;1.00;;;;;;6155577;23;20161;-86
2022/09/27 11:18:47;;;;;;;52.10;23.05;;;14.70;1.00;;;;;;6154863;23;20161;-86
2022/09/27 11:21:23;;;;;;;54.78;23.60;;;14.60;1.00;;;;;;6155609;23;20158;-86
2022/09/27 11:24:10;;;;;;;51.53;22.63;;;14.50;1.00;;;;;;6155246;23;20197;-87
2022/09/27 11:26:48;;;;;;;55.85;23.60;;;14.40;1.00;;;;;;6154823;23;20165;-87
2022/09/27 11:29:29;;;;;;;53.95;23.08;;;14.30;1.00;;;;;;6155204;23;20150;-86
2022/09/27 11:32:20;;;;;;;52.72;22.98;;;14.20;1.00;;;;;;6154719;23;20604;-86
2022/09/27 11:35:05;;;;;;;52.60;23.08;;;14.20;1.00;;;;;;6155455;23;20177;-87
2022/09/27 11:37:42;;;;;;;52.63;23.10;;;14.20;1.00;;;;;;6155138;23;20232;-88
2022/09/27 11:40:24;;;;;;;53.28;23.23;;;14.20;1.00;;;;;;6154831;23;20463;-86
2022/09/27 11:43:15;;;;;;;53.70;23.40;;;14.20;1.00;;;;;;6155192;23;20157;-85
2022/09/27 11:45:53;;;;;;;50.15;22.60;;;14.20;1.00;;;;;;6149984;23;20269;-85
2022/09/27 11:48:36;;;;;;;50.45;22.73;;;14.40;1.00;;;;;;6154998;23;20150;-87
2022/09/27 11:51:14;;;;;;;51.03;22.90;;;14.60;1.00;;;;;;6154999;23;20154;-88
2022/09/27 11:54:06;;;;;;;50.03;22.85;;;14.70;1.00;;;;;;6154972;23;20150;-85
2022/09/27 11:56:46;;;;;;;49.33;22.52;;;14.70;1.00;;;;;;6154824;23;20154;-87
2022/09/27 11:59:54;;;;;;;48.80;22.48;;;14.80;1.00;;;;;;6154921;23;20502;-88
2022/09/27 12:02:45;;;;;;;47.35;22.08;;;14.70;1.00;;;;;;6036023;23;20164;-85
2022/09/27 12:05:32;;;;;;;47.10;21.98;;;14.60;1.00;;;;;;6001161;23;20229;-85
2022/09/27 12:08:13;;;;;;;59.50;26.25;;;14.50;1.00;;;;;;6094739;23;20222;-87
2022/09/27 12:10:46;;;;;;;52.70;23.27;;;14.40;1.00;;;;;;6125077;23;20562;-85
2022/09/27 12:13:18;;;;;;;50.22;22.77;;;14.30;1.00;;;;;;6125836;23;20158;-85
2022/09/27 12:15:47;;;;;;;47.72;22.05;;;14.20;1.00;;;;;;6127545;23;20154;-85
2022/09/27 12:18:24;;;;;;;47.42;22.00;;;14.10;1.00;;;;;;6127140;23;20529;-87
2022/09/27 12:20:53;;;;;;;52.95;23.98;;;13.90;1.00;;;;;;6127078;23;20190;-87
2022/09/27 12:23:23;;;;;;;58.90;24.23;;;13.80;1.00;;;;;;6127576;23;20214;-86
2022/09/27 12:25:56;;;;;;;127.97;33.17;;;13.70;1.00;;;;;;6127403;23;20230;-88
2022/09/27 12:28:32;;;;;;;112.40;32.00;;;13.70;1.00;;;;;;6127416;23;20154;-88
2022/09/27 12:31:07;;;;;;;105.83;31.20;;;13.60;1.00;;;;;;6127087;23;20157;-87
2022/09/27 12:33:43;;;;;;;99.53;30.50;;;13.60;1.00;;;;;;6126933;23;20161;-87
2022/09/27 12:36:16;;;;;;;105.00;31.07;;;13.60;1.00;;;;;;6127020;23;20158;-84
2022/09/27 12:38:50;;;;;;;105.13;30.87;;;13.50;20.20;;;;;;6126879;23;20594;-85
2022/09/27 12:41:21;;;;;;;102.00;30.63;;;13.50;16.70;;;;;;6127721;23;20154;-84
2022/09/27 12:43:50;;;;;;;109.43;30.67;;;13.50;27.40;;;;;;6127627;23;20147;-85
2022/09/27 12:46:30;;;;;;;118.03;32.23;;;13.60;28.30;;;;;;6127149;23;20641;-84
2022/09/27 12:49:05;;;;;;;122.13;35.50;;;13.80;75.80;;;;;;6126771;23;20209;-85
2022/09/27 12:51:38;;;;;;;96.40;30.73;;;14.00;83.40;;;;;;6127209;23;20154;-85
2022/09/27 12:54:31;;;;;;;97.45;30.10;;;14.10;47.30;;;;;;6126667;23;20151;-86
2022/09/27 12:57:07;;;;;;;83.30;28.42;;;14.20;15.40;;;;;;6126597;23;20678;-86
2022/09/27 12:59:59;;;;;;;69.22;25.88;;;14.30;5.90;;;;;;6126592;23;20201;-86
2022/09/27 13:02:53;;;;;;;87.47;28.98;;;14.40;10.30;;;;;;6126678;23;20590;-85
2022/09/27 13:05:52;;;;;;;86.53;28.90;;;14.60;16.30;;;;;;6093890;23;20230;-86
2022/09/27 13:08:37;;;;;;;81.30;27.83;;;14.80;3.50;;;;;;6126338;23;20167;-86
2022/09/27 13:11:13;;;;;;;82.97;29.58;;;15.00;1.00;;;;;;6126806;23;20178;-85
2022/09/27 13:13:40;;;;;;;79.38;27.52;;;15.20;1.00;;;;;;6127288;23;20221;-85
2022/09/27 13:16:11;;;;;;;78.20;27.23;;;15.40;1.00;;;;;;6126363;23;20221;-85
2022/09/27 13:18:58;;;;;;;74.45;26.88;;;15.50;1.00;;;;;;6126220;23;20178;-85
2022/09/27 13:21:56;;;;;;;69.50;26.27;;;15.60;1.00;;;;;;6126720;23;20157;-85
2022/09/27 13:24:32;;;;;;;68.80;26.08;;;15.60;1.00;;;;;;6118124;23;20191;-86